Time;durP1;ratioP1;P1;durP2;ratioP2;P2;SDS_P1;SDS_P2;PMS_P1;PMS_P2;Temp;Humidity;BMP_temperature;BMP_pressure;BME280_temperature;BME280_humidity;BME280_pressure;Samples;Min_cycle;Max_cycle;Signal;HPM_P1;HPM_P2
2024/01/18 00:02:10;;;;;;;;;;;28.80;99.90;;;;;;5111847;28;19923;-67
2024/01/18 00:04:37;;;;;;;;;;;28.60;99.90;;;;;;5100852;28;20383;-65
2024/01/18 00:07:04;;;;;;;;;;;28.20;99.90;;;;;;5106001;28;19912;-66
2024/01/18 00:09:30;;;;;;;;;;;27.90;99.90;;;;;;5103310;28;20318;-67
2024/01/18 00:11:57;;;;;;;;;;;27.90;99.90;;;;;;5112320;28;19908;-66
2024/01/18 00:14:24;;;;;;;;;;;27.80;99.90;;;;;;5111759;28;19924;-67
2024/01/18 00:16:50;;;;;;;;;;;27.70;99.90;;;;;;5112663;28;19908;-66
2024/01/18 00:19:17;;;;;;;;;;;27.60;99.90;;;;;;5102083;28;19912;-68
2024/01/18 00:21:43;;;;;;;;;;;27.60;99.90;;;;;;5105809;28;19912;-66
2024/01/18 00:24:10;;;;;;;;;;;27.60;99.90;;;;;;5107327;28;19998;-70
2024/01/18 00:26:37;;;;;;;;;;;27.50;99.90;;;;;;5104138;28;19920;-69
2024/01/18 00:29:03;;;;;;;;;;;27.70;99.90;;;;;;5099947;28;19919;-71
2024/01/18 00:31:30;;;;;;;;;;;27.70;99.90;;;;;;5098420;28;20364;-73
2024/01/18 00:33:59;;;;;;;;;;;27.80;99.90;;;;;;5112094;28;19961;-71
2024/01/18 00:36:26;;;;;;;;;;;27.80;99.90;;;;;;5111988;28;19915;-74
2024/01/18 00:38:53;;;;;;;;;;;27.90;99.90;;;;;;5094350;28;19968;-72
2024/01/18 00:41:20;;;;;;;;;;;28.10;99.90;;;;;;5111214;28;20372;-74
2024/01/18 00:43:48;;;;;;;;;;;28.00;99.90;;;;;;5111669;28;19994;-73
2024/01/18 00:46:18;;;;;;;;;;;28.00;99.90;;;;;;5111279;28;19908;-70
2024/01/18 00:48:45;;;;;;;;;;;27.90;99.90;;;;;;5112541;28;19912;-71
2024/01/18 00:51:12;;;;;;;;;;;27.90;99.90;;;;;;5111812;28;19934;-72
2024/01/18 00:53:39;;;;;;;;;;;27.80;99.90;;;;;;5112033;28;19908;-72
2024/01/18 00:56:09;;;;;;;;;;;27.70;99.90;;;;;;5111844;28;19981;-73
2024/01/18 00:58:36;;;;;;;;;;;27.70;99.90;;;;;;5110851;28;19937;-70
2024/01/18 01:01:03;;;;;;;;;;;27.70;99.90;;;;;;5096722;28;20006;-72
2024/01/18 01:03:30;;;;;;;;;;;27.70;99.90;;;;;;5104168;28;20350;-73
2024/01/18 01:05:57;;;;;;;;;;;27.70;99.90;;;;;;5112130;28;20003;-66
2024/01/18 01:08:25;;;;;;;;;;;27.80;99.90;;;;;;5103206;28;20361;-68
2024/01/18 01:10:52;;;;;;;;;;;27.80;99.90;;;;;;5097235;28;19945;-71
2024/01/18 01:13:19;;;;;;;;;;;28.00;99.90;;;;;;5111022;28;19908;-71
2024/01/18 01:15:48;;;;;;;;;;;28.30;99.90;;;;;;5111784;28;20318;-70
2024/01/18 01:18:19;;;;;;;;;;;28.50;99.90;;;;;;5075564;28;19922;-69
2024/01/18 01:20:46;;;;;;;;;;;28.80;99.90;;;;;;5095519;28;19920;-67
2024/01/18 01:23:13;;;;;;;;;;;29.10;99.90;;;;;;5101180;28;19911;-68
2024/01/18 01:25:40;;;;;;;;;;;29.30;99.90;;;;;;5101045;28;19908;-67
2024/01/18 01:28:09;;;;;;;;;;;29.30;99.90;;;;;;5098806;28;19916;-69
2024/01/18 01:30:36;;;;;;;;;;;29.50;99.90;;;;;;5102580;28;19923;-70
2024/01/18 01:33:03;;;;;;;;;;;29.50;99.90;;;;;;5082972;28;19908;-67
2024/01/18 01:35:31;;;;;;;;;;;29.40;99.90;;;;;;5105081;28;19954;-71
2024/01/18 01:37:59;;;;;;;;;;;29.00;99.90;;;;;;5105669;28;19966;-71
2024/01/18 01:40:28;;;;;;;;;;;28.90;99.90;;;;;;5106774;28;19915;-72
2024/01/18 01:42:54;;;;;;;;;;;28.90;99.90;;;;;;5082000;28;20397;-71
2024/01/18 01:45:21;;;;;;;;;;;28.90;99.90;;;;;;5103993;28;19919;-67
2024/01/18 01:47:48;;;;;;;;;;;28.90;99.90;;;;;;5104371;28;19958;-68
2024/01/18 01:50:15;;;;;;;;;;;29.00;99.90;;;;;;5107660;28;20387;-69
2024/01/18 01:52:43;;;;;;;;;;;29.10;99.90;;;;;;5103717;28;19908;-68
2024/01/18 01:55:12;;;;;;;;;;;29.20;99.90;;;;;;5104094;28;19931;-71
2024/01/18 01:57:39;;;;;;;;;;;29.30;99.90;;;;;;5105273;28;19915;-71
2024/01/18 02:00:07;;;;;;;;;;;29.60;99.90;;;;;;5103257;28;19908;-70
2024/01/18 02:02:35;;;;;;;;;;;29.70;99.90;;;;;;5103378;28;19916;-70
2024/01/18 02:05:05;;;;;;;;;;;30.00;99.90;;;;;;5103846;28;20304;-69
2024/01/18 02:07:32;;;;;;;;;;;30.20;99.90;;;;;;5101052;28;19923;-70
2024/01/18 02:09:59;;;;;;;;;;;30.40;99.90;;;;;;5104559;28;19962;-68
2024/01/18 02:12:26;;;;;;;;;;;30.60;99.90;;;;;;5098931;28;19943;-70
2024/01/18 02:14:56;;;;;;;;;;;30.70;99.90;;;;;;5104587;28;20384;-68
2024/01/18 02:17:23;;;;;;;;;;;30.70;99.90;;;;;;5092100;28;19912;-68
2024/01/18 02:19:49;;;;;;;;;;;30.70;99.90;;;;;;5112021;28;19973;-68
2024/01/18 02:22:21;;;;;;;;;;;30.70;99.90;;;;;;5106868;28;20002;-69
2024/01/18 02:24:50;;;;;;;;;;;30.90;99.90;;;;;;5114225;28;19914;-69
2024/01/18 02:27:19;;;;;;;;;;;31.10;99.90;;;;;;5113831;28;19943;-70
2024/01/18 02:29:47;;;;;;;;;;;31.20;99.90;;;;;;5114210;28;19911;-72
2024/01/18 02:32:14;;;;;;;;;;;31.50;99.90;;;;;;5114324;28;19908;-71
2024/01/18 02:34:45;;;;;;;;;;;31.50;99.90;;;;;;5114277;28;19985;-75
2024/01/18 02:37:12;;;;;;;;;;;31.50;99.90;;;;;;5092834;28;19973;-71
2024/01/18 02:39:39;;;;;;;;;;;31.50;99.90;;;;;;5094625;28;20034;-71
2024/01/18 02:42:08;;;;;;;;;;;31.50;99.90;;;;;;5093701;28;19912;-71
2024/01/18 02:44:36;;;;;;;;;;;31.40;99.90;;;;;;5074911;28;20525;-73
2024/01/18 02:47:04;;;;;;;;;;;31.50;99.90;;;;;;5102076;28;19927;-70
2024/01/18 02:49:31;;;;;;;;;;;31.60;99.90;;;;;;5082492;28;19916;-69
2024/01/18 02:51:58;;;;;;;;;;;31.80;99.90;;;;;;5101952;28;19909;-68
2024/01/18 02:54:25;;;;;;;;;;;31.90;99.90;;;;;;5102804;28;20014;-71
2024/01/18 02:56:52;;;;;;;;;;;31.90;99.90;;;;;;5083674;28;19920;-72
2024/01/18 02:59:20;;;;;;;;;;;32.00;99.90;;;;;;5083961;28;19999;-70
2024/01/18 03:01:46;;;;;;;;;;;32.10;99.90;;;;;;5081116;28;20353;-70
2024/01/18 03:04:13;;;;;;;;;;;32.30;99.90;;;;;;5082794;28;19938;-67
2024/01/18 03:06:41;;;;;;;;;;;32.40;99.90;;;;;;5082243;28;20377;-70
2024/01/18 03:09:08;;;;;;;;;;;32.50;99.90;;;;;;5081331;28;19912;-69
2024/01/18 03:11:35;;;;;;;;;;;32.90;99.90;;;;;;5083402;28;19916;-68
2024/01/18 03:14:02;;;;;;;;;;;33.30;99.90;;;;;;5081202;28;20481;-69
2024/01/18 03:16:28;;;;;;;;;;;34.10;99.90;;;;;;5082451;28;20003;-71
2024/01/18 03:18:55;;;;;;;;;;;34.40;99.90;;;;;;5081483;28;19920;-70
2024/01/18 03:21:22;;;;;;;;;;;35.00;99.60;;;;;;5081212;28;19908;-68
2024/01/18 03:23:49;;;;;;;;;;;35.70;98.60;;;;;;5082647;28;19977;-68
2024/01/18 03:26:16;;;;;;;;;;;36.40;96.90;;;;;;5082095;28;20384;-67
2024/01/18 03:28:43;;;;;;;;;;;36.80;97.20;;;;;;5083215;28;19916;-71
2024/01/18 03:31:11;;;;;;;;;;;37.20;95.70;;;;;;5084726;28;20010;-68
2024/01/18 03:33:38;;;;;;;;;;;37.40;95.20;;;;;;5082065;28;19956;-69
2024/01/18 03:36:06;;;;;;;;;;;37.80;95.00;;;;;;5079851;28;19923;-68
2024/01/18 03:38:32;;;;;;;;;;;38.20;94.40;;;;;;5090442;28;19909;-67
2024/01/18 03:40:59;;;;;;;;;;;38.80;92.70;;;;;;5075638;28;20483;-68
2024/01/18 03:43:25;;;;;;;;;;;39.00;92.50;;;;;;5086836;28;19965;-69
2024/01/18 03:45:52;;;;;;;;;;;39.50;92.10;;;;;;5090847;28;20345;-69
2024/01/18 03:48:19;;;;;;;;;;;40.00;91.20;;;;;;5090647;28;19908;-71
2024/01/18 03:50:45;;;;;;;;;;;40.40;90.80;;;;;;5082645;28;19970;-69
2024/01/18 03:53:12;;;;;;;;;;;40.90;89.20;;;;;;5091362;28;20371;-68
2024/01/18 03:55:39;;;;;;;;;;;40.50;90.00;;;;;;5100950;28;19926;-69
2024/01/18 03:58:06;;;;;;;;;;;40.20;90.10;;;;;;5110898;28;19995;-69
2024/01/18 04:00:33;;;;;;;;;;;41.10;87.60;;;;;;5091983;28;19912;-69
2024/01/18 04:02:59;;;;;;;;;;;41.60;86.20;;;;;;5091958;28;19908;-68
2024/01/18 04:05:26;;;;;;;;;;;41.70;85.30;;;;;;5092226;28;19954;-68
2024/01/18 04:07:53;;;;;;;;;;;42.10;84.60;;;;;;5112488;28;19960;-68
2024/01/18 04:10:20;;;;;;;;;;;41.70;85.40;;;;;;5104918;28;19971;-72
2024/01/18 04:12:47;;;;;;;;;;;41.80;83.20;;;;;;5091148;28;19965;-69
2024/01/18 04:15:14;;;;;;;;;;;41.80;85.00;;;;;;5090715;28;20408;-74
2024/01/18 04:17:40;;;;;;;;;;;42.70;82.90;;;;;;5101921;28;19912;-68
2024/01/18 04:20:08;;;;;;;;;;;42.40;82.80;;;;;;5101813;28;19908;-73
2024/01/18 04:22:35;;;;;;;;;;;41.90;83.20;;;;;;5107766;28;20016;-68
2024/01/18 04:25:03;;;;;;;;;;;41.70;81.20;;;;;;5093469;28;19919;-69
2024/01/18 04:27:30;;;;;;;;;;;42.00;82.20;;;;;;5099459;28;19947;-71
2024/01/18 04:29:56;;;;;;;;;;;41.50;82.70;;;;;;5106357;28;19919;-71
2024/01/18 04:32:23;;;;;;;;;;;41.70;81.10;;;;;;5101761;28;19931;-72
2024/01/18 04:34:50;;;;;;;;;;;42.50;80.00;;;;;;5100785;28;20372;-70
2024/01/18 04:37:16;;;;;;;;;;;43.10;80.00;;;;;;5111810;28;19915;-76
2024/01/18 04:39:43;;;;;;;;;;;43.50;79.00;;;;;;5111720;28;19904;-69
2024/01/18 04:42:09;;;;;;;;;;;43.40;77.90;;;;;;5111973;28;19916;-73
2024/01/18 04:44:36;;;;;;;;;;;43.20;78.90;;;;;;5111598;28;19915;-73
2024/01/18 04:47:03;;;;;;;;;;;43.50;77.70;;;;;;5110160;28;19965;-73
2024/01/18 04:49:29;;;;;;;;;;;43.30;76.50;;;;;;5110827;28;19918;-73
2024/01/18 04:51:56;;;;;;;;;;;43.50;76.70;;;;;;5103449;28;20361;-75
2024/01/18 04:54:23;;;;;;;;;;;43.20;76.40;;;;;;5094794;28;20399;-73
2024/01/18 04:56:49;;;;;;;;;;;43.30;76.70;;;;;;5095038;28;20383;-78
2024/01/18 04:59:17;;;;;;;;;;;43.50;77.10;;;;;;5111430;28;19915;-68
2024/01/18 05:01:43;;;;;;;;;;;43.80;75.60;;;;;;5094814;28;19995;-78
2024/01/18 05:04:10;;;;;;;;;;;44.00;75.40;;;;;;5093373;28;19912;-72
2024/01/18 05:06:37;;;;;;;;;;;43.70;76.20;;;;;;5097411;28;20762;-71
2024/01/18 05:09:03;;;;;;;;;;;43.50;74.80;;;;;;5112656;28;20322;-70
2024/01/18 05:11:32;;;;;;;;;;;42.90;75.80;;;;;;5115722;28;20410;-70
2024/01/18 05:13:59;;;;;;;;;;;42.50;76.20;;;;;;5115148;28;19916;-74
2024/01/18 05:16:26;;;;;;;;;;;42.50;76.90;;;;;;5114582;28;19977;-69
2024/01/18 05:18:52;;;;;;;;;;;42.50;75.80;;;;;;5115557;28;19908;-68
2024/01/18 05:21:21;;;;;;;;;;;42.60;76.30;;;;;;5104607;28;19919;-68
2024/01/18 05:23:49;;;;;;;;;;;43.00;76.30;;;;;;5115174;28;19908;-72
2024/01/18 05:26:17;;;;;;;;;;;43.00;76.00;;;;;;5115066;28;19911;-72
2024/01/18 05:28:44;;;;;;;;;;;43.00;75.50;;;;;;5107776;28;20364;-69
2024/01/18 05:31:11;;;;;;;;;;;43.00;75.10;;;;;;5081008;28;19924;-77
2024/01/18 05:33:37;;;;;;;;;;;42.80;74.60;;;;;;5102598;28;20071;-71
2024/01/18 05:36:04;;;;;;;;;;;42.50;75.60;;;;;;5112237;28;19955;-72
2024/01/18 05:38:33;;;;;;;;;;;42.50;75.70;;;;;;5111436;28;19909;-72
2024/01/18 05:41:00;;;;;;;;;;;42.60;75.00;;;;;;5100025;28;19912;-74
2024/01/18 05:43:28;;;;;;;;;;;42.50;76.60;;;;;;5107349;28;19920;-74
2024/01/18 05:45:54;;;;;;;;;;;42.60;75.50;;;;;;5109490;28;19912;-71
2024/01/18 05:48:21;;;;;;;;;;;42.20;76.40;;;;;;5111291;28;19961;-70
2024/01/18 05:50:48;;;;;;;;;;;41.90;76.10;;;;;;5109109;28;19923;-68
2024/01/18 05:53:14;;;;;;;;;;;41.70;76.50;;;;;;5105870;28;19916;-71
2024/01/18 05:55:42;;;;;;;;;;;42.00;76.10;;;;;;5104937;28;19920;-71
2024/01/18 05:58:08;;;;;;;;;;;41.00;77.70;;;;;;5103327;28;19912;-68
2024/01/18 06:00:35;;;;;;;;;;;40.90;77.90;;;;;;5106414;28;19912;-73
2024/01/18 06:03:02;;;;;;;;;;;40.80;78.60;;;;;;5111152;28;19927;-70
2024/01/18 06:05:28;;;;;;;;;;;40.30;79.60;;;;;;5102373;28;19904;-69
2024/01/18 06:07:55;;;;;;;;;;;40.10;78.50;;;;;;5102237;28;19922;-74
2024/01/18 06:10:22;;;;;;;;;;;39.60;79.50;;;;;;5100759;28;19923;-74
2024/01/18 06:25:42;;;;;;;;;;;35.80;87.80;;;;;;5011772;28;20307;-69
2024/01/18 06:28:10;;;;;;;;;;;35.20;89.20;;;;;;5031203;28;19914;-69
2024/01/18 06:30:43;;;;;;;;;;;34.80;90.70;;;;;;5034217;28;19909;-70
2024/01/18 06:33:10;;;;;;;;;;;34.20;91.40;;;;;;5034769;28;20276;-69
2024/01/18 06:35:37;;;;;;;;;;;33.70;91.60;;;;;;5034383;28;19917;-68
2024/01/18 06:38:03;;;;;;;;;;;32.70;92.70;;;;;;5032203;28;19917;-69
2024/01/18 06:40:30;;;;;;;;;;;32.30;93.90;;;;;;5034505;28;20288;-68
2024/01/18 06:42:57;;;;;;;;;;;32.20;94.50;;;;;;5034176;28;19909;-69
2024/01/18 06:45:23;;;;;;;;;;;32.30;95.20;;;;;;5016359;28;19909;-68
2024/01/18 06:47:50;;;;;;;;;;;32.10;95.50;;;;;;5022923;28;19909;-69
2024/01/18 06:50:17;;;;;;;;;;;32.30;95.50;;;;;;5016537;28;19914;-69
2024/01/18 06:52:43;;;;;;;;;;;32.40;95.70;;;;;;5014447;28;19915;-69
2024/01/18 06:55:10;;;;;;;;;;;32.40;96.20;;;;;;5024417;28;20451;-70
2024/01/18 06:57:37;;;;;;;;;;;32.70;95.70;;;;;;5018981;28;19956;-68
2024/01/18 07:00:04;;;;;;;;;;;32.80;95.20;;;;;;5014298;28;19960;-69
2024/01/18 07:02:31;;;;;;;;;;;32.40;94.70;;;;;;5021912;28;19967;-69
2024/01/18 07:04:58;;;;;;;;;;;31.70;96.20;;;;;;5022012;28;20289;-69
2024/01/18 07:07:25;;;;;;;;;;;31.70;96.90;;;;;;5023812;28;20608;-69
2024/01/18 07:09:52;;;;;;;;;;;31.90;96.50;;;;;;5024512;28;20392;-69
2024/01/18 07:12:18;;;;;;;;;;;31.90;96.80;;;;;;5004798;28;19913;-69
2024/01/18 07:14:45;;;;;;;;;;;32.10;96.80;;;;;;5024016;28;19964;-68
2024/01/18 07:17:12;;;;;;;;;;;31.60;96.30;;;;;;5023238;28;19924;-68
2024/01/18 07:19:38;;;;;;;;;;;31.50;97.90;;;;;;5006385;28;19916;-68
2024/01/18 07:22:05;;;;;;;;;;;31.60;98.00;;;;;;5021865;28;19913;-67
2024/01/18 07:24:32;;;;;;;;;;;31.70;97.30;;;;;;5023209;28;19920;-68
2024/01/18 07:26:58;;;;;;;;;;;31.80;97.50;;;;;;5020696;28;20271;-69
2024/01/18 07:29:25;;;;;;;;;;;31.80;97.20;;;;;;5022257;28;19913;-69
2024/01/18 07:31:52;;;;;;;;;;;31.50;97.80;;;;;;5002964;28;19965;-68
2024/01/18 07:34:19;;;;;;;;;;;31.60;97.70;;;;;;5020081;28;19924;-67
2024/01/18 07:36:45;;;;;;;;;;;31.20;97.70;;;;;;4998769;28;20388;-70
2024/01/18 07:39:12;;;;;;;;;;;30.90;98.60;;;;;;5012406;28;20316;-72
2024/01/18 07:41:39;;;;;;;;;;;30.90;99.50;;;;;;5018853;28;20014;-71
2024/01/18 07:44:05;;;;;;;;;;;30.50;98.90;;;;;;5030646;28;19913;-71
2024/01/18 07:46:32;;;;;;;;;;;30.00;99.90;;;;;;5018904;28;19920;-71
2024/01/18 07:49:00;;;;;;;;;;;29.60;99.90;;;;;;5021529;28;20345;-70
2024/01/18 07:51:26;;;;;;;;;;;29.20;99.90;;;;;;5021100;28;19913;-68
2024/01/18 07:53:53;;;;;;;;;;;28.80;99.90;;;;;;5022879;28;20273;-70
2024/01/18 07:56:19;;;;;;;;;;;28.60;99.90;;;;;;5021019;28;19917;-70
2024/01/18 07:58:47;;;;;;;;;;;28.30;99.90;;;;;;5021435;28;19909;-68
2024/01/18 08:01:18;;;;;;;;;;;28.40;99.90;;;;;;5022625;28;20019;-70
2024/01/18 08:03:44;;;;;;;;;;;28.50;99.90;;;;;;5022272;28;20008;-69
2024/01/18 08:06:11;;;;;;;;;;;28.60;99.90;;;;;;5022636;28;19992;-71
2024/01/18 08:08:40;;;;;;;;;;;28.60;99.90;;;;;;5021982;28;19919;-70
2024/01/18 08:11:10;;;;;;;;;;;28.50;99.90;;;;;;5019990;28;20003;-71
2024/01/18 08:13:36;;;;;;;;;;;28.30;99.90;;;;;;5021316;28;19952;-69
2024/01/18 08:16:03;;;;;;;;;;;27.90;99.90;;;;;;5022853;28;20294;-71
2024/01/18 08:18:30;;;;;;;;;;;27.90;99.90;;;;;;5020832;28;19920;-70
2024/01/18 08:20:58;;;;;;;;;;;27.90;99.90;;;;;;5021553;28;19920;-71
2024/01/18 08:23:24;;;;;;;;;;;27.90;99.90;;;;;;5018362;28;19957;-72
2024/01/18 08:25:52;;;;;;;;;;;27.60;99.90;;;;;;4894288;28;3636118;-70
2024/01/18 08:28:19;;;;;;;;;;;27.50;99.90;;;;;;5022243;28;19924;-70
2024/01/18 08:30:45;;;;;;;;;;;27.50;99.90;;;;;;5022393;28;19914;-70
2024/01/18 08:33:12;;;;;;;;;;;27.20;99.90;;;;;;5020686;28;19909;-71
2024/01/18 08:35:39;;;;;;;;;;;27.30;99.90;;;;;;5023981;28;19928;-70
2024/01/18 08:38:05;;;;;;;;;;;27.30;99.90;;;;;;5022614;28;20000;-71
2024/01/18 08:40:33;;;;;;;;;;;27.30;99.90;;;;;;5020774;28;20606;-72
2024/01/18 08:43:00;;;;;;;;;;;27.40;99.90;;;;;;5022721;28;20357;-68
2024/01/18 08:45:27;;;;;;;;;;;27.40;99.90;;;;;;5019394;28;19971;-68
2024/01/18 08:47:53;;;;;;;;;;;27.40;99.90;;;;;;5023208;28;19917;-70
2024/01/18 08:50:22;;;;;;;;;;;27.40;99.90;;;;;;5022389;28;19917;-69
2024/01/18 08:52:51;;;;;;;;;;;27.30;99.90;;;;;;5022083;28;19913;-68
2024/01/18 08:55:18;;;;;;;;;;;27.10;99.90;;;;;;5022467;28;19926;-70
2024/01/18 08:57:45;;;;;;;;;;;27.10;99.90;;;;;;5021444;28;19960;-69
2024/01/18 09:00:17;;;;;;;;;;;27.00;99.90;;;;;;5021294;28;19928;-68
2024/01/18 09:02:46;;;;;;;;;;;26.80;99.90;;;;;;5020751;28;19963;-71
2024/01/18 09:05:13;;;;;;;;;;;26.70;99.90;;;;;;5022469;28;19952;-70
2024/01/18 09:07:40;;;;;;;;;;;26.50;99.90;;;;;;5021179;28;19989;-71
2024/01/18 09:10:08;;;;;;;;;;;26.60;99.90;;;;;;5021299;28;19913;-69
2024/01/18 09:12:36;;;;;;;;;;;26.50;99.90;;;;;;5002737;28;19909;-69
2024/01/18 09:15:03;;;;;;;;;;;26.30;99.90;;;;;;5021035;28;19925;-70
2024/01/18 09:17:30;;;;;;;;;;;26.30;99.90;;;;;;5020802;28;19913;-70
2024/01/18 09:19:56;;;;;;;;;;;26.30;99.90;;;;;;5021321;28;19914;-70
2024/01/18 09:22:23;;;;;;;;;;;26.30;99.90;;;;;;5020835;28;20365;-70
2024/01/18 09:24:50;;;;;;;;;;;26.30;99.90;;;;;;5023778;28;19909;-69
2024/01/18 09:27:16;;;;;;;;;;;26.10;99.90;;;;;;5021203;28;20323;-69
2024/01/18 09:29:43;;;;;;;;;;;26.00;99.90;;;;;;5024954;28;20427;-69
2024/01/18 09:32:10;;;;;;;;;;;25.90;99.90;;;;;;5030815;28;19913;-68
2024/01/18 09:34:36;;;;;;;;;;;25.90;99.90;;;;;;5031211;28;19917;-69
2024/01/18 09:37:03;;;;;;;;;;;25.70;99.90;;;;;;5020068;28;19921;-69
2024/01/18 09:39:30;;;;;;;;;;;25.70;99.90;;;;;;5011713;28;19910;-68
2024/01/18 09:41:57;;;;;;;;;;;25.70;99.90;;;;;;4996084;28;19931;-71
2024/01/18 09:44:30;;;;;;;;;;;25.70;99.90;;;;;;5020727;28;19920;-69
2024/01/18 09:46:57;;;;;;;;;;;25.70;99.90;;;;;;5022681;28;19992;-69
2024/01/18 09:49:24;;;;;;;;;;;25.70;99.90;;;;;;5023946;28;19932;-70
2024/01/18 09:51:51;;;;;;;;;;;25.60;99.90;;;;;;5031255;28;19996;-69
2024/01/18 09:54:18;;;;;;;;;;;25.60;99.90;;;;;;5031078;28;19932;-69
2024/01/18 09:56:46;;;;;;;;;;;25.50;99.90;;;;;;5030776;28;19920;-70
2024/01/18 09:59:18;;;;;;;;;;;25.40;99.90;;;;;;5033378;28;19917;-72
2024/01/18 10:01:45;;;;;;;;;;;25.50;99.90;;;;;;5017193;28;19925;-71
2024/01/18 10:04:13;;;;;;;;;;;25.50;99.90;;;;;;5027892;28;19921;-71
2024/01/18 10:06:40;;;;;;;;;;;25.50;99.90;;;;;;5034566;28;19959;-71
2024/01/18 10:09:16;;;;;;;;;;;25.50;99.90;;;;;;5022535;28;20004;-71
2024/01/18 10:11:46;;;;;;;;;;;25.40;99.90;;;;;;5021396;28;19913;-71
2024/01/18 10:14:13;;;;;;;;;;;25.40;99.90;;;;;;5032328;28;19948;-70
2024/01/18 10:16:40;;;;;;;;;;;25.40;99.90;;;;;;5028149;28;19960;-70
2024/01/18 10:19:14;;;;;;;;;;;25.40;99.90;;;;;;5014446;28;19917;-71
2024/01/18 10:21:41;;;;;;;;;;;25.30;99.90;;;;;;5014321;28;19909;-71
2024/01/18 10:24:11;;;;;;;;;;;25.30;99.90;;;;;;5013863;28;20273;-71
2024/01/18 10:26:38;;;;;;;;;;;25.30;99.90;;;;;;4997665;28;20378;-70
2024/01/18 10:29:06;;;;;;;;;;;25.30;99.90;;;;;;5014234;28;19940;-70
2024/01/18 10:31:33;;;;;;;;;;;25.30;99.90;;;;;;5014128;28;19956;-70
2024/01/18 10:33:59;;;;;;;;;;;25.20;99.90;;;;;;5014009;28;19950;-72
2024/01/18 10:36:26;;;;;;;;;;;25.10;99.90;;;;;;5015059;28;19913;-71
2024/01/18 10:38:53;;;;;;;;;;;25.10;99.90;;;;;;5018083;28;19914;-70
2024/01/18 10:41:20;;;;;;;;;;;25.20;99.90;;;;;;5015383;28;19956;-68
2024/01/18 10:43:49;;;;;;;;;;;25.10;99.90;;;;;;5033110;28;19920;-68
2024/01/18 10:46:17;;;;;;;;;;;25.10;99.90;;;;;;5033333;28;19909;-70
2024/01/18 10:48:52;;;;;;;;;;;25.10;99.90;;;;;;5006773;28;19913;-69
2024/01/18 10:51:18;;;;;;;;;;;25.10;99.90;;;;;;5013752;28;20654;-68
2024/01/18 10:53:46;;;;;;;;;;;25.00;99.90;;;;;;5014041;28;20376;-68
2024/01/18 10:56:14;;;;;;;;;;;25.10;99.90;;;;;;5015354;28;19928;-69
2024/01/18 10:58:41;;;;;;;;;;;25.00;99.90;;;;;;5033413;28;19952;-68
2024/01/18 11:01:07;;;;;;;;;;;25.00;99.90;;;;;;5033693;28;20245;-71
2024/01/18 11:03:35;;;;;;;;;;;25.00;99.90;;;;;;5032907;28;20103;-71
2024/01/18 11:06:08;;;;;;;;;;;25.00;99.90;;;;;;5023421;28;19929;-71
2024/01/18 11:08:36;;;;;;;;;;;25.00;99.90;;;;;;5020261;28;19999;-70
2024/01/18 11:11:03;;;;;;;;;;;25.00;99.90;;;;;;5029134;28;19996;-71
2024/01/18 11:13:29;;;;;;;;;;;25.00;99.90;;;;;;5032796;28;20386;-72
2024/01/18 11:15:56;;;;;;;;;;;24.90;99.90;;;;;;5003567;28;20524;-70
2024/01/18 11:18:23;;;;;;;;;;;24.80;99.90;;;;;;5011314;28;20369;-71
2024/01/18 11:20:58;;;;;;;;;;;24.90;99.90;;;;;;5021663;28;19920;-71
2024/01/18 11:23:29;;;;;;;;;;;24.90;99.90;;;;;;5033122;28;19913;-72
2024/01/18 11:25:55;;;;;;;;;;;24.80;99.90;;;;;;5032667;28;19924;-71
2024/01/18 11:28:23;;;;;;;;;;;24.70;99.90;;;;;;5032495;28;19917;-71
2024/01/18 11:30:49;;;;;;;;;;;24.70;99.90;;;;;;5022529;28;19914;-70
2024/01/18 11:33:16;;;;;;;;;;;24.70;99.90;;;;;;5012810;28;20416;-69
2024/01/18 11:35:43;;;;;;;;;;;24.70;99.90;;;;;;5013556;28;20292;-70
2024/01/18 11:38:21;;;;;;;;;;;24.50;99.90;;;;;;5012756;28;19913;-68
2024/01/18 11:40:50;;;;;;;;;;;24.40;99.90;;;;;;5014024;28;19909;-70
2024/01/18 11:43:21;;;;;;;;;;;24.20;99.90;;;;;;4997918;28;20378;-69
2024/01/18 11:45:51;;;;;;;;;;;24.00;99.90;;;;;;5022429;28;19913;-70
2024/01/18 11:48:20;;;;;;;;;;;23.80;99.90;;;;;;5033357;28;19968;-70
2024/01/18 11:50:47;;;;;;;;;;;23.80;99.90;;;;;;5033387;28;20376;-68
2024/01/18 11:53:15;;;;;;;;;;;23.90;99.90;;;;;;5031859;28;20276;-69
2024/01/18 11:55:48;;;;;;;;;;;23.90;99.90;;;;;;5033018;28;19917;-70
2024/01/18 11:58:16;;;;;;;;;;;23.90;99.90;;;;;;5032974;28;20268;-70
2024/01/18 12:00:43;;;;;;;;;;;24.00;99.90;;;;;;5033299;28;19913;-69
2024/01/18 12:03:12;;;;;;;;;;;24.00;99.90;;;;;;5031837;28;19909;-69
2024/01/18 12:05:45;;;;;;;;;;;24.10;99.90;;;;;;5013143;28;19913;-71
2024/01/18 12:08:13;;;;;;;;;;;24.10;99.90;;;;;;5012509;28;20373;-70
2024/01/18 12:10:40;;;;;;;;;;;24.10;99.90;;;;;;5013119;28;20337;-69
2024/01/18 12:13:07;;;;;;;;;;;24.00;99.90;;;;;;5013372;28;19992;-70
2024/01/18 12:15:34;;;;;;;;;;;24.00;99.90;;;;;;5013294;28;19918;-71
2024/01/18 12:18:01;;;;;;;;;;;23.80;99.90;;;;;;5013053;28;19910;-70
2024/01/18 12:20:27;;;;;;;;;;;23.80;99.90;;;;;;5013277;28;19909;-70
2024/01/18 12:22:54;;;;;;;;;;;23.70;99.90;;;;;;5013269;28;19913;-69
2024/01/18 12:25:21;;;;;;;;;;;23.70;99.90;;;;;;5031037;28;19913;-71
2024/01/18 12:27:47;;;;;;;;;;;23.70;99.90;;;;;;5032564;28;19921;-70
2024/01/18 12:30:14;;;;;;;;;;;23.60;99.90;;;;;;5032980;28;19910;-69
2024/01/18 12:32:42;;;;;;;;;;;23.50;99.90;;;;;;5032713;28;19913;-69
2024/01/18 12:35:08;;;;;;;;;;;23.50;99.90;;;;;;5032246;28;20312;-69
2024/01/18 12:37:37;;;;;;;;;;;23.40;99.90;;;;;;5031219;28;19952;-70
2024/01/18 12:40:04;;;;;;;;;;;23.30;99.90;;;;;;5032391;28;19913;-69
2024/01/18 12:42:32;;;;;;;;;;;23.20;99.90;;;;;;5022441;28;19975;-69
2024/01/18 12:44:59;;;;;;;;;;;23.10;99.90;;;;;;5030209;28;19913;-71
2024/01/18 12:47:26;;;;;;;;;;;23.10;99.90;;;;;;5032689;28;19916;-70
2024/01/18 12:49:55;;;;;;;;;;;22.90;99.90;;;;;;5032449;28;19909;-70
2024/01/18 12:52:22;;;;;;;;;;;22.90;99.90;;;;;;5029029;28;19921;-69
2024/01/18 12:54:48;;;;;;;;;;;22.80;99.90;;;;;;5027342;28;19921;-71
2024/01/18 12:57:15;;;;;;;;;;;22.90;99.90;;;;;;5032540;28;20020;-71
2024/01/18 12:59:42;;;;;;;;;;;22.90;99.90;;;;;;5032641;28;20368;-71
2024/01/18 13:02:08;;;;;;;;;;;22.90;99.90;;;;;;5032724;28;19909;-72
2024/01/18 13:04:38;;;;;;;;;;;23.00;99.90;;;;;;5030603;28;19920;-70
2024/01/18 13:07:11;;;;;;;;;;;22.80;99.90;;;;;;5032318;28;19913;-70
2024/01/18 13:09:38;;;;;;;;;;;22.90;99.90;;;;;;5032443;28;19913;-70
2024/01/18 13:12:05;;;;;;;;;;;22.80;99.90;;;;;;5032879;28;19909;-70
2024/01/18 13:14:32;;;;;;;;;;;22.80;99.90;;;;;;5032208;28;19929;-70
2024/01/18 13:16:58;;;;;;;;;;;22.70;99.90;;;;;;5031782;28;19921;-70
2024/01/18 13:19:25;;;;;;;;;;;22.80;99.90;;;;;;5032206;28;19920;-69
2024/01/18 13:21:53;;;;;;;;;;;22.70;99.90;;;;;;5032770;28;19915;-67
2024/01/18 13:24:20;;;;;;;;;;;22.70;99.90;;;;;;5031899;28;20349;-69
2024/01/18 13:26:47;;;;;;;;;;;22.60;99.90;;;;;;5032341;28;19921;-71
2024/01/18 13:29:16;;;;;;;;;;;22.60;99.90;;;;;;5032136;28;19972;-69
2024/01/18 13:31:43;;;;;;;;;;;22.50;99.90;;;;;;5035691;28;19928;-70
2024/01/18 13:34:09;;;;;;;;;;;22.50;99.90;;;;;;5035805;28;19959;-70
2024/01/18 13:36:36;;;;;;;;;;;22.40;99.90;;;;;;5035888;28;19916;-70
2024/01/18 13:39:06;;;;;;;;;;;22.40;99.90;;;;;;5035683;28;19967;-70
2024/01/18 13:41:33;;;;;;;;;;;22.40;99.90;;;;;;5035686;28;20363;-70
2024/01/18 13:44:00;;;;;;;;;;;22.30;99.90;;;;;;5035048;28;20281;-70
2024/01/18 13:46:27;;;;;;;;;;;22.30;99.90;;;;;;5018293;28;19968;-70
2024/01/18 13:48:54;;;;;;;;;;;22.10;99.90;;;;;;5035513;28;19996;-71
2024/01/18 13:51:21;;;;;;;;;;;22.10;99.90;;;;;;5035118;28;19916;-70
2024/01/18 13:53:50;;;;;;;;;;;22.00;99.90;;;;;;5033013;28;19936;-71
2024/01/18 13:56:20;;;;;;;;;;;21.90;99.90;;;;;;5035350;28;20384;-70
2024/01/18 13:58:47;;;;;;;;;;;21.90;99.90;;;;;;5035470;28;19995;-70
2024/01/18 14:01:14;;;;;;;;;;;21.90;99.90;;;;;;5031109;28;19914;-71
2024/01/18 14:03:44;;;;;;;;;;;21.90;99.90;;;;;;5015415;28;19937;-70
2024/01/18 14:06:15;;;;;;;;;;;22.00;99.50;;;;;;5015610;28;20020;-69
2024/01/18 14:08:45;;;;;;;;;;;22.00;99.90;;;;;;5015318;28;19909;-70
2024/01/18 14:11:13;;;;;;;;;;;22.00;99.90;;;;;;5015854;28;19910;-71
2024/01/18 14:13:39;;;;;;;;;;;22.00;99.50;;;;;;5019750;28;20376;-69
2024/01/18 14:16:08;;;;;;;;;;;22.00;99.20;;;;;;5034970;28;19957;-71
2024/01/18 14:18:35;;;;;;;;;;;22.00;99.70;;;;;;5035284;28;19959;-70
2024/01/18 14:21:02;;;;;;;;;;;21.90;98.30;;;;;;5035090;28;19913;-71
2024/01/18 14:23:29;;;;;;;;;;;21.90;98.10;;;;;;5034821;28;20332;-71
2024/01/18 14:25:56;;;;;;;;;;;21.90;97.70;;;;;;5035115;28;20422;-71
2024/01/18 14:28:23;;;;;;;;;;;21.90;97.90;;;;;;5035003;28;19913;-71
2024/01/18 14:30:50;;;;;;;;;;;22.00;97.90;;;;;;5016851;28;19909;-71